sensor_id;sensor_type;location;lat;lon;timestamp;P1;durP1;ratioP1;P2;durP2;ratioP2
29500;SDS011;16450;50.288;10.966;2023-05-24T00:02:35;12.47;;;5.23;;
29500;SDS011;16450;50.288;10.966;2023-05-24T00:05:38;11.40;;;5.67;;
29500;SDS011;16450;50.288;10.966;2023-05-24T00:08:41;12.00;;;5.97;;
29500;SDS011;16450;50.288;10.966;2023-05-24T00:11:43;12.63;;;5.60;;
29500;SDS011;16450;50.288;10.966;2023-05-24T00:14:47;11.17;;;5.60;;
29500;SDS011;16450;50.288;10.966;2023-05-24T00:17:49;11.27;;;5.60;;
29500;SDS011;16450;50.288;10.966;2023-05-24T00:20:51;11.50;;;5.47;;
29500;SDS011;16450;50.288;10.966;2023-05-24T00:23:57;8.97;;;5.07;;
29500;SDS011;16450;50.288;10.966;2023-05-24T00:26:59;10.67;;;5.43;;
29500;SDS011;16450;50.288;10.966;2023-05-24T00:30:01;7.87;;;5.20;;
29500;SDS011;16450;50.288;10.966;2023-05-24T00:33:03;14.50;;;5.43;;
29500;SDS011;16450;50.288;10.966;2023-05-24T00:36:05;9.80;;;5.00;;
29500;SDS011;16450;50.288;10.966;2023-05-24T00:39:07;11.10;;;5.37;;
29500;SDS011;16450;50.288;10.966;2023-05-24T00:42:09;10.70;;;5.20;;
29500;SDS011;16450;50.288;10.966;2023-05-24T00:45:11;11.47;;;5.20;;
29500;SDS011;16450;50.288;10.966;2023-05-24T00:48:13;11.50;;;5.13;;
29500;SDS011;16450;50.288;10.966;2023-05-24T00:51:15;11.73;;;5.43;;
29500;SDS011;16450;50.288;10.966;2023-05-24T00:54:17;9.03;;;4.87;;
29500;SDS011;16450;50.288;10.966;2023-05-24T00:57:19;9.97;;;5.23;;
29500;SDS011;16450;50.288;10.966;2023-05-24T01:00:22;11.77;;;5.17;;
29500;SDS011;16450;50.288;10.966;2023-05-24T01:03:25;13.87;;;6.40;;
29500;SDS011;16450;50.288;10.966;2023-05-24T01:06:33;11.57;;;5.47;;
29500;SDS011;16450;50.288;10.966;2023-05-24T01:13:26;10.20;;;5.20;;
29500;SDS011;16450;50.288;10.966;2023-05-24T01:16:51;10.73;;;5.50;;
29500;SDS011;16450;50.288;10.966;2023-05-24T01:26:36;15.23;;;5.50;;
29500;SDS011;16450;50.288;10.966;2023-05-24T01:29:47;9.47;;;5.10;;
29500;SDS011;16450;50.288;10.966;2023-05-24T01:32:53;11.00;;;5.07;;
29500;SDS011;16450;50.288;10.966;2023-05-24T01:35:55;10.57;;;5.50;;
29500;SDS011;16450;50.288;10.966;2023-05-24T01:38:57;10.23;;;5.53;;
29500;SDS011;16450;50.288;10.966;2023-05-24T01:42:07;12.97;;;6.27;;
29500;SDS011;16450;50.288;10.966;2023-05-24T01:45:48;8.83;;;5.13;;
29500;SDS011;16450;50.288;10.966;2023-05-24T01:52:09;13.10;;;4.90;;
29500;SDS011;16450;50.288;10.966;2023-05-24T01:55:13;12.87;;;5.70;;
29500;SDS011;16450;50.288;10.966;2023-05-24T01:58:17;13.47;;;5.13;;
29500;SDS011;16450;50.288;10.966;2023-05-24T02:01:23;8.00;;;5.00;;
29500;SDS011;16450;50.288;10.966;2023-05-24T02:04:25;11.33;;;5.37;;
29500;SDS011;16450;50.288;10.966;2023-05-24T02:07:27;10.43;;;5.17;;
29500;SDS011;16450;50.288;10.966;2023-05-24T02:10:29;10.97;;;4.97;;
29500;SDS011;16450;50.288;10.966;2023-05-24T02:13:31;8.93;;;5.07;;
29500;SDS011;16450;50.288;10.966;2023-05-24T02:16:33;9.00;;;5.20;;
29500;SDS011;16450;50.288;10.966;2023-05-24T02:19:34;9.50;;;4.90;;
29500;SDS011;16450;50.288;10.966;2023-05-24T02:22:37;11.90;;;5.40;;
29500;SDS011;16450;50.288;10.966;2023-05-24T02:25:39;12.50;;;5.70;;
29500;SDS011;16450;50.288;10.966;2023-05-24T02:28:41;10.20;;;4.77;;
29500;SDS011;16450;50.288;10.966;2023-05-24T02:31:43;12.37;;;5.03;;
29500;SDS011;16450;50.288;10.966;2023-05-24T02:34:45;10.53;;;5.50;;
29500;SDS011;16450;50.288;10.966;2023-05-24T02:37:47;10.40;;;5.07;;
29500;SDS011;16450;50.288;10.966;2023-05-24T02:40:49;12.77;;;5.57;;
29500;SDS011;16450;50.288;10.966;2023-05-24T02:43:51;7.90;;;4.60;;
29500;SDS011;16450;50.288;10.966;2023-05-24T02:46:52;12.30;;;4.90;;
29500;SDS011;16450;50.288;10.966;2023-05-24T02:49:54;15.40;;;5.13;;
29500;SDS011;16450;50.288;10.966;2023-05-24T02:52:57;12.97;;;4.97;;
29500;SDS011;16450;50.288;10.966;2023-05-24T02:55:59;13.70;;;4.33;;
29500;SDS011;16450;50.288;10.966;2023-05-24T02:59:01;13.47;;;4.60;;
29500;SDS011;16450;50.288;10.966;2023-05-24T03:02:03;16.83;;;4.50;;
29500;SDS011;16450;50.288;10.966;2023-05-24T03:05:06;10.70;;;4.10;;
29500;SDS011;16450;50.288;10.966;2023-05-24T03:08:08;19.00;;;4.33;;
29500;SDS011;16450;50.288;10.966;2023-05-24T03:11:09;11.87;;;4.00;;
29500;SDS011;16450;50.288;10.966;2023-05-24T03:14:11;10.57;;;3.70;;
29500;SDS011;16450;50.288;10.966;2023-05-24T03:17:13;14.73;;;3.77;;
29500;SDS011;16450;50.288;10.966;2023-05-24T03:20:15;13.90;;;3.97;;
29500;SDS011;16450;50.288;10.966;2023-05-24T03:23:17;15.47;;;4.13;;
29500;SDS011;16450;50.288;10.966;2023-05-24T03:26:19;12.73;;;3.73;;
29500;SDS011;16450;50.288;10.966;2023-05-24T03:29:22;10.93;;;3.77;;
29500;SDS011;16450;50.288;10.966;2023-05-24T03:32:24;14.37;;;3.40;;
29500;SDS011;16450;50.288;10.966;2023-05-24T03:35:26;11.63;;;3.83;;
29500;SDS011;16450;50.288;10.966;2023-05-24T03:38:27;13.57;;;3.67;;
29500;SDS011;16450;50.288;10.966;2023-05-24T03:41:30;14.00;;;3.87;;
29500;SDS011;16450;50.288;10.966;2023-05-24T03:44:31;11.17;;;3.40;;
29500;SDS011;16450;50.288;10.966;2023-05-24T03:47:33;9.80;;;3.60;;
29500;SDS011;16450;50.288;10.966;2023-05-24T03:50:37;15.00;;;3.53;;
29500;SDS011;16450;50.288;10.966;2023-05-24T03:53:39;12.73;;;3.30;;
29500;SDS011;16450;50.288;10.966;2023-05-24T03:56:40;11.63;;;3.30;;
29500;SDS011;16450;50.288;10.966;2023-05-24T03:59:42;11.03;;;3.53;;
29500;SDS011;16450;50.288;10.966;2023-05-24T04:02:44;11.93;;;3.13;;
29500;SDS011;16450;50.288;10.966;2023-05-24T04:05:46;11.07;;;3.00;;
29500;SDS011;16450;50.288;10.966;2023-05-24T04:08:48;14.40;;;3.17;;
29500;SDS011;16450;50.288;10.966;2023-05-24T04:11:52;15.63;;;4.00;;
29500;SDS011;16450;50.288;10.966;2023-05-24T04:14:54;11.67;;;3.13;;
29500;SDS011;16450;50.288;10.966;2023-05-24T04:17:56;10.37;;;3.60;;
29500;SDS011;16450;50.288;10.966;2023-05-24T04:20:58;11.60;;;3.47;;
29500;SDS011;16450;50.288;10.966;2023-05-24T04:24:00;9.53;;;3.40;;
29500;SDS011;16450;50.288;10.966;2023-05-24T04:27:03;9.40;;;3.20;;
29500;SDS011;16450;50.288;10.966;2023-05-24T04:30:05;14.17;;;3.13;;
29500;SDS011;16450;50.288;10.966;2023-05-24T04:33:09;10.77;;;3.00;;
29500;SDS011;16450;50.288;10.966;2023-05-24T04:36:11;9.50;;;2.93;;
29500;SDS011;16450;50.288;10.966;2023-05-24T04:39:13;8.80;;;3.20;;
29500;SDS011;16450;50.288;10.966;2023-05-24T04:42:16;11.80;;;3.13;;
29500;SDS011;16450;50.288;10.966;2023-05-24T04:45:17;10.33;;;3.30;;
29500;SDS011;16450;50.288;10.966;2023-05-24T04:48:22;11.00;;;3.10;;
29500;SDS011;16450;50.288;10.966;2023-05-24T04:51:25;12.97;;;3.20;;
29500;SDS011;16450;50.288;10.966;2023-05-24T04:54:27;10.50;;;2.70;;
29500;SDS011;16450;50.288;10.966;2023-05-24T04:57:29;11.87;;;3.40;;
29500;SDS011;16450;50.288;10.966;2023-05-24T05:00:31;13.90;;;3.10;;
29500;SDS011;16450;50.288;10.966;2023-05-24T05:03:33;14.47;;;3.03;;
29500;SDS011;16450;50.288;10.966;2023-05-24T05:06:35;9.77;;;2.97;;
29500;SDS011;16450;50.288;10.966;2023-05-24T05:09:39;9.80;;;3.10;;
29500;SDS011;16450;50.288;10.966;2023-05-24T05:12:42;14.03;;;3.10;;
29500;SDS011;16450;50.288;10.966;2023-05-24T05:15:44;10.13;;;3.27;;
29500;SDS011;16450;50.288;10.966;2023-05-24T05:18:46;8.93;;;2.77;;
29500;SDS011;16450;50.288;10.966;2023-05-24T05:21:48;11.50;;;2.80;;
29500;SDS011;16450;50.288;10.966;2023-05-24T05:24:51;8.60;;;3.10;;
29500;SDS011;16450;50.288;10.966;2023-05-24T05:27:52;12.33;;;3.17;;
29500;SDS011;16450;50.288;10.966;2023-05-24T05:30:54;11.27;;;3.27;;
29500;SDS011;16450;50.288;10.966;2023-05-24T05:33:57;13.80;;;3.10;;
29500;SDS011;16450;50.288;10.966;2023-05-24T05:36:58;10.07;;;2.90;;
29500;SDS011;16450;50.288;10.966;2023-05-24T05:40:00;14.47;;;3.10;;
29500;SDS011;16450;50.288;10.966;2023-05-24T05:43:03;15.37;;;3.20;;
29500;SDS011;16450;50.288;10.966;2023-05-24T05:46:04;12.70;;;2.90;;
29500;SDS011;16450;50.288;10.966;2023-05-24T05:49:07;8.90;;;2.73;;
29500;SDS011;16450;50.288;10.966;2023-05-24T05:52:09;11.80;;;2.80;;
29500;SDS011;16450;50.288;10.966;2023-05-24T05:55:11;10.30;;;2.40;;
29500;SDS011;16450;50.288;10.966;2023-05-24T05:58:13;10.37;;;2.57;;
29500;SDS011;16450;50.288;10.966;2023-05-24T06:01:15;9.00;;;2.77;;
29500;SDS011;16450;50.288;10.966;2023-05-24T06:04:17;9.43;;;2.70;;
29500;SDS011;16450;50.288;10.966;2023-05-24T06:07:19;9.73;;;2.43;;
29500;SDS011;16450;50.288;10.966;2023-05-24T06:10:21;10.23;;;2.77;;
29500;SDS011;16450;50.288;10.966;2023-05-24T06:13:23;10.13;;;2.50;;
29500;SDS011;16450;50.288;10.966;2023-05-24T06:16:24;10.40;;;2.37;;
29500;SDS011;16450;50.288;10.966;2023-05-24T06:19:26;5.63;;;2.03;;
29500;SDS011;16450;50.288;10.966;2023-05-24T06:22:28;7.47;;;2.57;;
29500;SDS011;16450;50.288;10.966;2023-05-24T06:25:30;7.70;;;2.30;;
29500;SDS011;16450;50.288;10.966;2023-05-24T06:28:33;8.67;;;2.43;;
29500;SDS011;16450;50.288;10.966;2023-05-24T06:31:34;9.07;;;2.53;;
29500;SDS011;16450;50.288;10.966;2023-05-24T06:34:36;10.20;;;2.90;;
29500;SDS011;16450;50.288;10.966;2023-05-24T06:37:38;8.87;;;2.20;;
29500;SDS011;16450;50.288;10.966;2023-05-24T06:40:41;8.30;;;2.40;;
29500;SDS011;16450;50.288;10.966;2023-05-24T06:43:43;9.43;;;2.40;;
29500;SDS011;16450;50.288;10.966;2023-05-24T06:46:46;8.37;;;2.43;;
29500;SDS011;16450;50.288;10.966;2023-05-24T06:49:48;9.87;;;2.23;;
29500;SDS011;16450;50.288;10.966;2023-05-24T06:52:51;9.43;;;1.90;;
29500;SDS011;16450;50.288;10.966;2023-05-24T06:55:52;9.70;;;2.33;;
29500;SDS011;16450;50.288;10.966;2023-05-24T06:58:58;9.17;;;2.47;;
29500;SDS011;16450;50.288;10.966;2023-05-24T07:02:00;8.77;;;2.33;;
29500;SDS011;16450;50.288;10.966;2023-05-24T07:05:04;9.60;;;2.30;;
29500;SDS011;16450;50.288;10.966;2023-05-24T07:08:12;8.73;;;2.00;;
29500;SDS011;16450;50.288;10.966;2023-05-24T07:11:14;7.67;;;2.20;;
29500;SDS011;16450;50.288;10.966;2023-05-24T07:14:16;9.83;;;2.10;;
29500;SDS011;16450;50.288;10.966;2023-05-24T07:17:19;5.30;;;1.90;;
29500;SDS011;16450;50.288;10.966;2023-05-24T07:20:21;6.17;;;2.27;;
29500;SDS011;16450;50.288;10.966;2023-05-24T07:23:23;5.70;;;2.07;;
29500;SDS011;16450;50.288;10.966;2023-05-24T07:26:25;6.73;;;2.00;;
29500;SDS011;16450;50.288;10.966;2023-05-24T07:29:27;9.43;;;2.23;;
29500;SDS011;16450;50.288;10.966;2023-05-24T07:32:29;8.20;;;1.97;;
29500;SDS011;16450;50.288;10.966;2023-05-24T07:35:33;6.37;;;1.87;;
29500;SDS011;16450;50.288;10.966;2023-05-24T07:38:35;9.00;;;1.90;;
29500;SDS011;16450;50.288;10.966;2023-05-24T07:41:37;6.00;;;2.37;;
29500;SDS011;16450;50.288;10.966;2023-05-24T07:44:38;7.30;;;2.30;;
29500;SDS011;16450;50.288;10.966;2023-05-24T07:47:40;8.43;;;2.00;;
29500;SDS011;16450;50.288;10.966;2023-05-24T07:50:43;5.53;;;2.27;;
29500;SDS011;16450;50.288;10.966;2023-05-24T07:53:48;9.87;;;2.07;;
29500;SDS011;16450;50.288;10.966;2023-05-24T07:56:51;7.27;;;1.90;;
29500;SDS011;16450;50.288;10.966;2023-05-24T07:59:53;6.53;;;2.13;;
29500;SDS011;16450;50.288;10.966;2023-05-24T08:02:54;7.67;;;1.90;;
29500;SDS011;16450;50.288;10.966;2023-05-24T08:05:56;4.13;;;1.58;;
29500;SDS011;16450;50.288;10.966;2023-05-24T08:08:58;9.07;;;1.98;;
29500;SDS011;16450;50.288;10.966;2023-05-24T08:12:04;4.78;;;1.58;;
29500;SDS011;16450;50.288;10.966;2023-05-24T08:15:07;5.10;;;1.70;;
29500;SDS011;16450;50.288;10.966;2023-05-24T08:18:09;6.25;;;2.15;;
29500;SDS011;16450;50.288;10.966;2023-05-24T08:21:11;7.70;;;1.90;;
29500;SDS011;16450;50.288;10.966;2023-05-24T08:24:13;5.35;;;1.73;;
29500;SDS011;16450;50.288;10.966;2023-05-24T08:27:15;7.40;;;2.25;;
29500;SDS011;16450;50.288;10.966;2023-05-24T08:30:17;6.43;;;1.90;;
29500;SDS011;16450;50.288;10.966;2023-05-24T08:33:20;6.90;;;1.92;;
29500;SDS011;16450;50.288;10.966;2023-05-24T08:36:25;4.50;;;1.85;;
29500;SDS011;16450;50.288;10.966;2023-05-24T08:39:27;6.30;;;1.95;;
29500;SDS011;16450;50.288;10.966;2023-05-24T08:42:28;5.55;;;1.90;;
29500;SDS011;16450;50.288;10.966;2023-05-24T08:45:31;8.38;;;2.20;;
29500;SDS011;16450;50.288;10.966;2023-05-24T08:48:39;6.57;;;2.13;;
29500;SDS011;16450;50.288;10.966;2023-05-24T08:51:47;7.22;;;2.03;;
29500;SDS011;16450;50.288;10.966;2023-05-24T08:54:52;6.40;;;2.20;;
29500;SDS011;16450;50.288;10.966;2023-05-24T08:57:54;7.55;;;2.10;;
29500;SDS011;16450;50.288;10.966;2023-05-24T09:00:57;6.30;;;2.15;;
29500;SDS011;16450;50.288;10.966;2023-05-24T09:04:00;4.35;;;2.05;;
29500;SDS011;16450;50.288;10.966;2023-05-24T09:07:05;4.90;;;1.90;;
29500;SDS011;16450;50.288;10.966;2023-05-24T09:10:08;6.10;;;1.92;;
29500;SDS011;16450;50.288;10.966;2023-05-24T09:13:11;7.25;;;2.25;;
29500;SDS011;16450;50.288;10.966;2023-05-24T09:16:16;7.65;;;1.90;;
29500;SDS011;16450;50.288;10.966;2023-05-24T09:19:18;8.75;;;1.92;;
29500;SDS011;16450;50.288;10.966;2023-05-24T09:22:21;5.95;;;1.77;;
29500;SDS011;16450;50.288;10.966;2023-05-24T09:25:26;8.02;;;2.05;;
29500;SDS011;16450;50.288;10.966;2023-05-24T09:28:31;7.47;;;2.30;;
29500;SDS011;16450;50.288;10.966;2023-05-24T09:31:34;7.85;;;1.92;;
29500;SDS011;16450;50.288;10.966;2023-05-24T09:34:38;6.63;;;2.13;;
29500;SDS011;16450;50.288;10.966;2023-05-24T09:37:40;7.25;;;2.58;;
29500;SDS011;16450;50.288;10.966;2023-05-24T09:40:42;12.85;;;2.40;;
29500;SDS011;16450;50.288;10.966;2023-05-24T09:43:48;8.88;;;2.38;;
29500;SDS011;16450;50.288;10.966;2023-05-24T09:46:50;7.07;;;2.33;;
29500;SDS011;16450;50.288;10.966;2023-05-24T09:49:52;6.07;;;2.13;;
29500;SDS011;16450;50.288;10.966;2023-05-24T09:52:54;6.67;;;2.43;;
29500;SDS011;16450;50.288;10.966;2023-05-24T09:55:56;7.87;;;2.37;;
29500;SDS011;16450;50.288;10.966;2023-05-24T09:58:58;11.07;;;3.10;;
29500;SDS011;16450;50.288;10.966;2023-05-24T10:02:06;8.20;;;2.27;;
29500;SDS011;16450;50.288;10.966;2023-05-24T10:05:12;9.37;;;2.60;;
29500;SDS011;16450;50.288;10.966;2023-05-24T10:08:14;7.90;;;2.70;;
29500;SDS011;16450;50.288;10.966;2023-05-24T10:11:18;11.80;;;2.90;;
29500;SDS011;16450;50.288;10.966;2023-05-24T10:14:21;9.07;;;2.50;;
29500;SDS011;16450;50.288;10.966;2023-05-24T10:17:25;6.90;;;2.37;;
29500;SDS011;16450;50.288;10.966;2023-05-24T10:20:30;9.20;;;2.80;;
29500;SDS011;16450;50.288;10.966;2023-05-24T10:23:32;7.43;;;2.93;;
29500;SDS011;16450;50.288;10.966;2023-05-24T10:26:36;7.20;;;2.27;;
29500;SDS011;16450;50.288;10.966;2023-05-24T10:32:47;9.40;;;2.70;;
29500;SDS011;16450;50.288;10.966;2023-05-24T10:35:51;10.10;;;2.80;;
29500;SDS011;16450;50.288;10.966;2023-05-24T10:38:53;9.23;;;2.37;;
29500;SDS011;16450;50.288;10.966;2023-05-24T10:41:56;9.80;;;2.60;;
29500;SDS011;16450;50.288;10.966;2023-05-24T10:48:32;10.00;;;2.30;;
29500;SDS011;16450;50.288;10.966;2023-05-24T10:51:41;7.63;;;2.50;;
29500;SDS011;16450;50.288;10.966;2023-05-24T10:58:05;9.30;;;2.70;;
29500;SDS011;16450;50.288;10.966;2023-05-24T11:01:23;9.53;;;2.80;;
29500;SDS011;16450;50.288;10.966;2023-05-24T11:04:30;6.37;;;2.37;;
29500;SDS011;16450;50.288;10.966;2023-05-24T11:07:33;8.13;;;2.37;;
29500;SDS011;16450;50.288;10.966;2023-05-24T11:10:43;9.20;;;2.30;;
29500;SDS011;16450;50.288;10.966;2023-05-24T11:13:46;9.10;;;2.53;;
29500;SDS011;16450;50.288;10.966;2023-05-24T11:16:48;6.57;;;2.50;;
29500;SDS011;16450;50.288;10.966;2023-05-24T11:19:53;7.00;;;2.63;;
29500;SDS011;16450;50.288;10.966;2023-05-24T11:22:55;9.93;;;2.50;;
29500;SDS011;16450;50.288;10.966;2023-05-24T11:25:59;8.07;;;2.60;;
29500;SDS011;16450;50.288;10.966;2023-05-24T11:29:02;8.43;;;2.30;;
29500;SDS011;16450;50.288;10.966;2023-05-24T11:32:05;8.77;;;3.03;;
29500;SDS011;16450;50.288;10.966;2023-05-24T11:35:08;7.97;;;2.73;;
29500;SDS011;16450;50.288;10.966;2023-05-24T11:38:12;7.67;;;2.30;;
29500;SDS011;16450;50.288;10.966;2023-05-24T11:41:16;11.67;;;2.40;;
29500;SDS011;16450;50.288;10.966;2023-05-24T11:44:18;8.03;;;2.50;;
29500;SDS011;16450;50.288;10.966;2023-05-24T11:47:20;7.83;;;3.00;;
29500;SDS011;16450;50.288;10.966;2023-05-24T11:50:23;8.90;;;2.70;;
29500;SDS011;16450;50.288;10.966;2023-05-24T11:53:28;8.43;;;2.30;;
29500;SDS011;16450;50.288;10.966;2023-05-24T11:56:31;6.83;;;2.17;;
29500;SDS011;16450;50.288;10.966;2023-05-24T11:59:34;7.83;;;2.50;;
29500;SDS011;16450;50.288;10.966;2023-05-24T12:02:38;6.50;;;2.43;;
29500;SDS011;16450;50.288;10.966;2023-05-24T12:05:41;8.57;;;1.90;;
29500;SDS011;16450;50.288;10.966;2023-05-24T12:08:43;7.97;;;2.27;;
29500;SDS011;16450;50.288;10.966;2023-05-24T12:11:48;8.63;;;2.37;;
29500;SDS011;16450;50.288;10.966;2023-05-24T12:14:54;6.90;;;2.50;;
29500;SDS011;16450;50.288;10.966;2023-05-24T12:17:57;9.30;;;2.40;;
29500;SDS011;16450;50.288;10.966;2023-05-24T12:20:59;8.43;;;2.40;;
29500;SDS011;16450;50.288;10.966;2023-05-24T12:24:11;5.53;;;1.90;;
29500;SDS011;16450;50.288;10.966;2023-05-24T12:27:14;7.63;;;2.07;;
29500;SDS011;16450;50.288;10.966;2023-05-24T12:30:20;7.27;;;2.30;;
29500;SDS011;16450;50.288;10.966;2023-05-24T12:33:29;9.27;;;2.43;;
29500;SDS011;16450;50.288;10.966;2023-05-24T12:36:31;6.40;;;2.30;;
29500;SDS011;16450;50.288;10.966;2023-05-24T12:39:35;5.43;;;2.20;;
29500;SDS011;16450;50.288;10.966;2023-05-24T12:42:38;9.40;;;1.90;;
29500;SDS011;16450;50.288;10.966;2023-05-24T12:45:40;6.80;;;1.90;;
29500;SDS011;16450;50.288;10.966;2023-05-24T12:48:41;4.40;;;1.83;;
29500;SDS011;16450;50.288;10.966;2023-05-24T12:51:44;6.40;;;1.90;;
29500;SDS011;16450;50.288;10.966;2023-05-24T12:54:49;4.53;;;1.73;;
29500;SDS011;16450;50.288;10.966;2023-05-24T12:57:52;5.87;;;1.80;;
29500;SDS011;16450;50.288;10.966;2023-05-24T13:00:56;6.73;;;2.10;;
29500;SDS011;16450;50.288;10.966;2023-05-24T13:03:58;7.90;;;2.30;;
29500;SDS011;16450;50.288;10.966;2023-05-24T13:07:00;6.00;;;1.70;;
29500;SDS011;16450;50.288;10.966;2023-05-24T13:10:03;7.93;;;2.07;;
29500;SDS011;16450;50.288;10.966;2023-05-24T13:13:10;5.93;;;2.10;;
29500;SDS011;16450;50.288;10.966;2023-05-24T13:16:13;4.73;;;1.97;;
29500;SDS011;16450;50.288;10.966;2023-05-24T13:19:15;3.30;;;1.50;;
29500;SDS011;16450;50.288;10.966;2023-05-24T13:22:18;4.97;;;1.93;;
29500;SDS011;16450;50.288;10.966;2023-05-24T13:25:20;6.40;;;2.47;;
29500;SDS011;16450;50.288;10.966;2023-05-24T13:28:23;6.40;;;1.83;;
29500;SDS011;16450;50.288;10.966;2023-05-24T13:31:28;6.73;;;1.80;;
29500;SDS011;16450;50.288;10.966;2023-05-24T13:34:30;5.37;;;2.00;;
29500;SDS011;16450;50.288;10.966;2023-05-24T13:37:33;6.53;;;2.20;;
29500;SDS011;16450;50.288;10.966;2023-05-24T13:40:35;5.80;;;1.90;;
29500;SDS011;16450;50.288;10.966;2023-05-24T13:43:40;3.67;;;1.90;;
29500;SDS011;16450;50.288;10.966;2023-05-24T13:46:42;8.00;;;2.23;;
29500;SDS011;16450;50.288;10.966;2023-05-24T13:49:45;7.17;;;2.23;;
29500;SDS011;16450;50.288;10.966;2023-05-24T13:52:47;5.93;;;1.97;;
29500;SDS011;16450;50.288;10.966;2023-05-24T13:55:49;8.23;;;2.33;;
29500;SDS011;16450;50.288;10.966;2023-05-24T13:58:51;7.03;;;2.37;;
29500;SDS011;16450;50.288;10.966;2023-05-24T14:01:53;8.50;;;2.03;;
29500;SDS011;16450;50.288;10.966;2023-05-24T14:04:55;7.90;;;2.50;;
29500;SDS011;16450;50.288;10.966;2023-05-24T14:08:17;5.77;;;2.23;;
29500;SDS011;16450;50.288;10.966;2023-05-24T14:11:19;8.20;;;2.50;;
29500;SDS011;16450;50.288;10.966;2023-05-24T14:14:22;4.20;;;1.87;;
29500;SDS011;16450;50.288;10.966;2023-05-24T14:17:27;7.67;;;2.20;;
29500;SDS011;16450;50.288;10.966;2023-05-24T14:20:29;5.93;;;1.90;;
29500;SDS011;16450;50.288;10.966;2023-05-24T14:23:33;6.53;;;2.23;;
29500;SDS011;16450;50.288;10.966;2023-05-24T14:26:34;5.00;;;2.13;;
29500;SDS011;16450;50.288;10.966;2023-05-24T14:29:36;6.13;;;2.08;;
29500;SDS011;16450;50.288;10.966;2023-05-24T14:32:38;6.35;;;2.10;;
29500;SDS011;16450;50.288;10.966;2023-05-24T14:35:40;6.88;;;2.50;;
29500;SDS011;16450;50.288;10.966;2023-05-24T14:38:43;4.32;;;1.67;;
29500;SDS011;16450;50.288;10.966;2023-05-24T14:41:48;6.25;;;1.90;;
29500;SDS011;16450;50.288;10.966;2023-05-24T14:44:49;7.60;;;2.13;;
29500;SDS011;16450;50.288;10.966;2023-05-24T14:47:51;4.80;;;1.77;;
29500;SDS011;16450;50.288;10.966;2023-05-24T14:50:53;4.85;;;1.92;;
29500;SDS011;16450;50.288;10.966;2023-05-24T14:53:55;4.90;;;1.85;;
29500;SDS011;16450;50.288;10.966;2023-05-24T14:56:57;9.57;;;3.28;;
29500;SDS011;16450;50.288;10.966;2023-05-24T14:59:59;5.70;;;2.58;;
29500;SDS011;16450;50.288;10.966;2023-05-24T15:03:01;5.90;;;2.10;;
29500;SDS011;16450;50.288;10.966;2023-05-24T15:06:03;8.63;;;2.10;;
29500;SDS011;16450;50.288;10.966;2023-05-24T15:09:05;7.93;;;3.20;;
29500;SDS011;16450;50.288;10.966;2023-05-24T15:12:07;8.38;;;3.08;;
29500;SDS011;16450;50.288;10.966;2023-05-24T15:15:09;6.18;;;2.60;;
29500;SDS011;16450;50.288;10.966;2023-05-24T15:18:11;6.53;;;2.30;;
29500;SDS011;16450;50.288;10.966;2023-05-24T15:21:14;6.70;;;2.03;;
29500;SDS011;16450;50.288;10.966;2023-05-24T15:24:15;5.40;;;2.00;;
29500;SDS011;16450;50.288;10.966;2023-05-24T15:27:17;8.83;;;3.43;;
29500;SDS011;16450;50.288;10.966;2023-05-24T15:30:20;6.87;;;3.00;;
29500;SDS011;16450;50.288;10.966;2023-05-24T15:33:24;11.77;;;3.17;;
29500;SDS011;16450;50.288;10.966;2023-05-24T15:36:27;8.37;;;3.20;;
29500;SDS011;16450;50.288;10.966;2023-05-24T15:39:29;6.30;;;2.60;;
29500;SDS011;16450;50.288;10.966;2023-05-24T15:42:31;11.80;;;3.47;;
29500;SDS011;16450;50.288;10.966;2023-05-24T15:45:33;6.23;;;2.07;;
29500;SDS011;16450;50.288;10.966;2023-05-24T15:48:35;7.83;;;2.63;;
29500;SDS011;16450;50.288;10.966;2023-05-24T15:51:36;7.07;;;2.10;;
29500;SDS011;16450;50.288;10.966;2023-05-24T15:54:41;8.13;;;2.30;;
29500;SDS011;16450;50.288;10.966;2023-05-24T15:57:44;6.47;;;2.33;;
29500;SDS011;16450;50.288;10.966;2023-05-24T16:00:46;6.43;;;2.30;;
29500;SDS011;16450;50.288;10.966;2023-05-24T16:03:47;9.47;;;2.67;;
29500;SDS011;16450;50.288;10.966;2023-05-24T16:06:49;6.17;;;2.37;;
29500;SDS011;16450;50.288;10.966;2023-05-24T16:09:51;7.83;;;2.23;;
29500;SDS011;16450;50.288;10.966;2023-05-24T16:12:54;7.07;;;2.70;;
29500;SDS011;16450;50.288;10.966;2023-05-24T16:15:56;7.70;;;2.43;;
29500;SDS011;16450;50.288;10.966;2023-05-24T16:18:58;9.53;;;2.97;;
29500;SDS011;16450;50.288;10.966;2023-05-24T16:21:59;6.20;;;2.20;;
29500;SDS011;16450;50.288;10.966;2023-05-24T16:25:02;4.70;;;2.00;;
29500;SDS011;16450;50.288;10.966;2023-05-24T16:28:03;4.93;;;2.07;;
29500;SDS011;16450;50.288;10.966;2023-05-24T16:31:05;4.83;;;2.33;;
29500;SDS011;16450;50.288;10.966;2023-05-24T16:34:07;7.83;;;2.40;;
29500;SDS011;16450;50.288;10.966;2023-05-24T16:37:09;10.50;;;2.67;;
29500;SDS011;16450;50.288;10.966;2023-05-24T16:40:11;6.77;;;2.43;;
29500;SDS011;16450;50.288;10.966;2023-05-24T16:43:13;8.73;;;2.60;;
29500;SDS011;16450;50.288;10.966;2023-05-24T16:46:16;8.60;;;2.40;;
29500;SDS011;16450;50.288;10.966;2023-05-24T16:49:19;9.03;;;2.53;;
29500;SDS011;16450;50.288;10.966;2023-05-24T16:52:21;8.43;;;3.07;;
29500;SDS011;16450;50.288;10.966;2023-05-24T16:55:23;8.23;;;2.37;;
29500;SDS011;16450;50.288;10.966;2023-05-24T16:58:25;8.27;;;2.43;;
29500;SDS011;16450;50.288;10.966;2023-05-24T17:01:28;5.67;;;2.00;;
29500;SDS011;16450;50.288;10.966;2023-05-24T17:04:30;7.43;;;2.30;;
29500;SDS011;16450;50.288;10.966;2023-05-24T17:07:32;8.73;;;2.40;;
29500;SDS011;16450;50.288;10.966;2023-05-24T17:10:34;9.60;;;2.67;;
29500;SDS011;16450;50.288;10.966;2023-05-24T17:13:39;8.50;;;2.30;;
29500;SDS011;16450;50.288;10.966;2023-05-24T17:16:41;9.93;;;2.60;;
29500;SDS011;16450;50.288;10.966;2023-05-24T17:19:43;6.10;;;2.17;;
29500;SDS011;16450;50.288;10.966;2023-05-24T17:22:45;9.13;;;2.33;;
29500;SDS011;16450;50.288;10.966;2023-05-24T17:25:49;8.47;;;2.63;;
29500;SDS011;16450;50.288;10.966;2023-05-24T17:28:52;6.80;;;2.37;;
29500;SDS011;16450;50.288;10.966;2023-05-24T17:31:54;8.30;;;2.87;;
29500;SDS011;16450;50.288;10.966;2023-05-24T17:34:56;7.10;;;2.70;;
29500;SDS011;16450;50.288;10.966;2023-05-24T17:37:58;7.40;;;2.50;;
29500;SDS011;16450;50.288;10.966;2023-05-24T17:41:00;7.97;;;2.40;;
29500;SDS011;16450;50.288;10.966;2023-05-24T17:44:03;9.97;;;2.90;;
29500;SDS011;16450;50.288;10.966;2023-05-24T17:47:07;7.33;;;2.70;;
29500;SDS011;16450;50.288;10.966;2023-05-24T17:50:09;7.43;;;2.47;;
29500;SDS011;16450;50.288;10.966;2023-05-24T17:53:11;9.27;;;2.67;;
29500;SDS011;16450;50.288;10.966;2023-05-24T17:56:31;8.43;;;3.83;;
29500;SDS011;16450;50.288;10.966;2023-05-24T17:59:33;12.60;;;3.77;;
29500;SDS011;16450;50.288;10.966;2023-05-24T18:02:35;5.30;;;2.20;;
29500;SDS011;16450;50.288;10.966;2023-05-24T18:05:37;8.23;;;2.60;;
29500;SDS011;16450;50.288;10.966;2023-05-24T18:08:38;8.07;;;2.70;;
29500;SDS011;16450;50.288;10.966;2023-05-24T18:11:44;8.27;;;2.47;;
29500;SDS011;16450;50.288;10.966;2023-05-24T18:14:46;8.43;;;2.33;;
29500;SDS011;16450;50.288;10.966;2023-05-24T18:17:48;7.10;;;2.63;;
29500;SDS011;16450;50.288;10.966;2023-05-24T18:20:50;9.57;;;2.40;;
29500;SDS011;16450;50.288;10.966;2023-05-24T18:23:52;6.67;;;2.20;;
29500;SDS011;16450;50.288;10.966;2023-05-24T18:26:54;7.73;;;2.70;;